sensor_id;sensor_type;location;lat;lon;timestamp;P1;durP1;ratioP1;P2;durP2;ratioP2
4434;SDS011;46552;52.150;8.428;2023-12-22T00:00:04;22.47;;;6.40;;
4434;SDS011;46552;52.150;8.428;2023-12-22T00:02:32;31.63;;;5.90;;
4434;SDS011;46552;52.150;8.428;2023-12-22T00:05:00;30.53;;;6.50;;
4434;SDS011;46552;52.150;8.428;2023-12-22T00:07:29;22.60;;;5.77;;
4434;SDS011;46552;52.150;8.428;2023-12-22T00:09:56;31.07;;;6.87;;
4434;SDS011;46552;52.150;8.428;2023-12-22T00:12:23;37.33;;;5.50;;
4434;SDS011;46552;52.150;8.428;2023-12-22T00:14:51;24.77;;;5.00;;
4434;SDS011;46552;52.150;8.428;2023-12-22T00:17:18;28.13;;;5.87;;
4434;SDS011;46552;52.150;8.428;2023-12-22T00:19:46;27.10;;;5.30;;
4434;SDS011;46552;52.150;8.428;2023-12-22T00:22:13;31.83;;;5.57;;
4434;SDS011;46552;52.150;8.428;2023-12-22T00:24:42;12.80;;;3.47;;
4434;SDS011;46552;52.150;8.428;2023-12-22T00:27:09;19.63;;;3.23;;
4434;SDS011;46552;52.150;8.428;2023-12-22T00:29:36;13.33;;;2.90;;
4434;SDS011;46552;52.150;8.428;2023-12-22T00:32:04;16.43;;;3.63;;
4434;SDS011;46552;52.150;8.428;2023-12-22T00:34:34;11.57;;;2.90;;
4434;SDS011;46552;52.150;8.428;2023-12-22T00:37:02;10.83;;;2.60;;
4434;SDS011;46552;52.150;8.428;2023-12-22T00:39:30;6.50;;;2.03;;
4434;SDS011;46552;52.150;8.428;2023-12-22T00:41:59;10.00;;;2.67;;
4434;SDS011;46552;52.150;8.428;2023-12-22T00:44:26;14.27;;;3.10;;
4434;SDS011;46552;52.150;8.428;2023-12-22T00:46:54;14.00;;;2.57;;
4434;SDS011;46552;52.150;8.428;2023-12-22T00:49:22;16.03;;;3.27;;
4434;SDS011;46552;52.150;8.428;2023-12-22T00:51:49;11.70;;;3.63;;
4434;SDS011;46552;52.150;8.428;2023-12-22T00:54:16;18.23;;;3.40;;
4434;SDS011;46552;52.150;8.428;2023-12-22T00:56:43;30.27;;;5.00;;
4434;SDS011;46552;52.150;8.428;2023-12-22T00:59:12;18.87;;;3.80;;
4434;SDS011;46552;52.150;8.428;2023-12-22T01:01:39;23.70;;;5.03;;
4434;SDS011;46552;52.150;8.428;2023-12-22T01:04:06;27.07;;;4.90;;
4434;SDS011;46552;52.150;8.428;2023-12-22T01:06:36;34.27;;;5.47;;
4434;SDS011;46552;52.150;8.428;2023-12-22T01:09:04;19.93;;;5.60;;
4434;SDS011;46552;52.150;8.428;2023-12-22T01:11:31;42.77;;;7.20;;
4434;SDS011;46552;52.150;8.428;2023-12-22T01:13:58;21.43;;;6.03;;
4434;SDS011;46552;52.150;8.428;2023-12-22T01:16:27;15.90;;;4.30;;
4434;SDS011;46552;52.150;8.428;2023-12-22T01:18:55;13.53;;;3.30;;
4434;SDS011;46552;52.150;8.428;2023-12-22T01:21:22;15.60;;;3.10;;
4434;SDS011;46552;52.150;8.428;2023-12-22T01:23:50;11.70;;;2.90;;
4434;SDS011;46552;52.150;8.428;2023-12-22T01:26:17;11.13;;;2.33;;
4434;SDS011;46552;52.150;8.428;2023-12-22T01:28:44;12.30;;;2.60;;
4434;SDS011;46552;52.150;8.428;2023-12-22T01:31:11;10.27;;;1.90;;
4434;SDS011;46552;52.150;8.428;2023-12-22T01:33:40;9.77;;;2.60;;
4434;SDS011;46552;52.150;8.428;2023-12-22T01:36:07;12.93;;;2.17;;
4434;SDS011;46552;52.150;8.428;2023-12-22T01:38:34;14.33;;;3.70;;
4434;SDS011;46552;52.150;8.428;2023-12-22T01:41:02;10.53;;;2.37;;
4434;SDS011;46552;52.150;8.428;2023-12-22T01:43:29;15.57;;;2.70;;
4434;SDS011;46552;52.150;8.428;2023-12-22T01:45:57;10.77;;;3.00;;
4434;SDS011;46552;52.150;8.428;2023-12-22T01:48:26;13.30;;;2.93;;
4434;SDS011;46552;52.150;8.428;2023-12-22T01:50:55;8.63;;;2.83;;
4434;SDS011;46552;52.150;8.428;2023-12-22T01:53:24;12.03;;;3.07;;
4434;SDS011;46552;52.150;8.428;2023-12-22T01:55:53;17.50;;;3.90;;
4434;SDS011;46552;52.150;8.428;2023-12-22T01:58:22;23.70;;;4.80;;
4434;SDS011;46552;52.150;8.428;2023-12-22T02:00:50;37.40;;;5.40;;
4434;SDS011;46552;52.150;8.428;2023-12-22T02:03:19;18.73;;;4.30;;
4434;SDS011;46552;52.150;8.428;2023-12-22T02:05:46;22.60;;;3.70;;
4434;SDS011;46552;52.150;8.428;2023-12-22T02:08:15;16.60;;;3.90;;
4434;SDS011;46552;52.150;8.428;2023-12-22T02:10:44;20.10;;;5.53;;
4434;SDS011;46552;52.150;8.428;2023-12-22T02:13:12;24.97;;;6.13;;
4434;SDS011;46552;52.150;8.428;2023-12-22T02:15:39;25.57;;;5.67;;
4434;SDS011;46552;52.150;8.428;2023-12-22T02:18:09;36.43;;;5.87;;
4434;SDS011;46552;52.150;8.428;2023-12-22T02:20:41;30.77;;;6.40;;
4434;SDS011;46552;52.150;8.428;2023-12-22T02:23:10;37.07;;;5.60;;
4434;SDS011;46552;52.150;8.428;2023-12-22T02:25:38;34.77;;;7.57;;
4434;SDS011;46552;52.150;8.428;2023-12-22T02:28:07;39.03;;;5.53;;
4434;SDS011;46552;52.150;8.428;2023-12-22T02:30:37;24.03;;;3.80;;
4434;SDS011;46552;52.150;8.428;2023-12-22T02:33:19;31.23;;;5.30;;
4434;SDS011;46552;52.150;8.428;2023-12-22T02:35:49;21.63;;;4.07;;
4434;SDS011;46552;52.150;8.428;2023-12-22T02:38:19;34.40;;;4.83;;
4434;SDS011;46552;52.150;8.428;2023-12-22T02:40:47;16.07;;;3.97;;
4434;SDS011;46552;52.150;8.428;2023-12-22T02:43:15;22.17;;;5.20;;
4434;SDS011;46552;52.150;8.428;2023-12-22T02:45:42;37.13;;;5.00;;
4434;SDS011;46552;52.150;8.428;2023-12-22T02:48:10;21.63;;;4.80;;
4434;SDS011;46552;52.150;8.428;2023-12-22T02:50:37;20.40;;;4.23;;
4434;SDS011;46552;52.150;8.428;2023-12-22T02:53:04;22.80;;;4.00;;
4434;SDS011;46552;52.150;8.428;2023-12-22T02:55:33;35.00;;;5.20;;
4434;SDS011;46552;52.150;8.428;2023-12-22T02:58:00;22.83;;;5.10;;
4434;SDS011;46552;52.150;8.428;2023-12-22T03:00:27;25.50;;;4.47;;
4434;SDS011;46552;52.150;8.428;2023-12-22T03:02:55;36.67;;;5.73;;
4434;SDS011;46552;52.150;8.428;2023-12-22T03:05:23;23.43;;;4.97;;
4434;SDS011;46552;52.150;8.428;2023-12-22T03:07:50;23.80;;;4.37;;
4434;SDS011;46552;52.150;8.428;2023-12-22T03:10:17;24.43;;;5.70;;
4434;SDS011;46552;52.150;8.428;2023-12-22T03:12:45;30.07;;;4.70;;
4434;SDS011;46552;52.150;8.428;2023-12-22T03:15:12;28.10;;;5.07;;
4434;SDS011;46552;52.150;8.428;2023-12-22T03:17:40;27.33;;;5.93;;
4434;SDS011;46552;52.150;8.428;2023-12-22T03:20:08;27.17;;;4.93;;
4434;SDS011;46552;52.150;8.428;2023-12-22T03:22:36;28.40;;;3.70;;
4434;SDS011;46552;52.150;8.428;2023-12-22T03:25:04;28.50;;;5.80;;
4434;SDS011;46552;52.150;8.428;2023-12-22T03:27:32;29.63;;;4.77;;
4434;SDS011;46552;52.150;8.428;2023-12-22T03:30:01;29.10;;;6.23;;
4434;SDS011;46552;52.150;8.428;2023-12-22T03:32:29;20.43;;;4.80;;
4434;SDS011;46552;52.150;8.428;2023-12-22T03:34:57;30.60;;;5.97;;
4434;SDS011;46552;52.150;8.428;2023-12-22T03:37:24;16.17;;;4.40;;
4434;SDS011;46552;52.150;8.428;2023-12-22T03:39:51;24.90;;;5.10;;
4434;SDS011;46552;52.150;8.428;2023-12-22T03:42:18;31.77;;;5.27;;
4434;SDS011;46552;52.150;8.428;2023-12-22T03:44:47;23.70;;;5.43;;
4434;SDS011;46552;52.150;8.428;2023-12-22T03:47:15;37.53;;;4.30;;
4434;SDS011;46552;52.150;8.428;2023-12-22T03:49:42;19.30;;;4.10;;
4434;SDS011;46552;52.150;8.428;2023-12-22T03:52:09;15.00;;;4.30;;
4434;SDS011;46552;52.150;8.428;2023-12-22T03:54:37;40.57;;;6.00;;
4434;SDS011;46552;52.150;8.428;2023-12-22T03:57:04;37.83;;;5.30;;
4434;SDS011;46552;52.150;8.428;2023-12-22T03:59:31;32.17;;;5.07;;
4434;SDS011;46552;52.150;8.428;2023-12-22T04:01:58;26.63;;;5.67;;
4434;SDS011;46552;52.150;8.428;2023-12-22T04:04:28;24.73;;;4.40;;
4434;SDS011;46552;52.150;8.428;2023-12-22T04:06:56;33.00;;;5.70;;
4434;SDS011;46552;52.150;8.428;2023-12-22T04:09:24;24.30;;;5.17;;
4434;SDS011;46552;52.150;8.428;2023-12-22T04:11:51;21.57;;;4.90;;
4434;SDS011;46552;52.150;8.428;2023-12-22T04:14:18;29.87;;;5.00;;
4434;SDS011;46552;52.150;8.428;2023-12-22T04:16:45;24.43;;;3.87;;
4434;SDS011;46552;52.150;8.428;2023-12-22T04:19:12;21.30;;;4.50;;
4434;SDS011;46552;52.150;8.428;2023-12-22T04:21:41;27.90;;;4.20;;
4434;SDS011;46552;52.150;8.428;2023-12-22T04:24:09;15.63;;;3.67;;
4434;SDS011;46552;52.150;8.428;2023-12-22T04:26:36;14.67;;;3.93;;
4434;SDS011;46552;52.150;8.428;2023-12-22T04:29:03;20.53;;;3.60;;
4434;SDS011;46552;52.150;8.428;2023-12-22T04:31:30;14.77;;;3.60;;
4434;SDS011;46552;52.150;8.428;2023-12-22T04:33:58;13.80;;;3.30;;
4434;SDS011;46552;52.150;8.428;2023-12-22T04:36:25;18.57;;;3.97;;
4434;SDS011;46552;52.150;8.428;2023-12-22T04:38:54;15.47;;;4.10;;
4434;SDS011;46552;52.150;8.428;2023-12-22T04:41:21;16.10;;;4.10;;
4434;SDS011;46552;52.150;8.428;2023-12-22T04:43:48;10.87;;;3.20;;
4434;SDS011;46552;52.150;8.428;2023-12-22T04:46:15;17.80;;;3.70;;
4434;SDS011;46552;52.150;8.428;2023-12-22T04:48:43;13.90;;;2.93;;
4434;SDS011;46552;52.150;8.428;2023-12-22T04:51:10;25.57;;;6.90;;
4434;SDS011;46552;52.150;8.428;2023-12-22T04:53:38;11.13;;;2.80;;
4434;SDS011;46552;52.150;8.428;2023-12-22T04:56:07;18.10;;;3.13;;
4434;SDS011;46552;52.150;8.428;2023-12-22T04:58:34;18.73;;;3.20;;
4434;SDS011;46552;52.150;8.428;2023-12-22T05:01:01;16.00;;;3.20;;
4434;SDS011;46552;52.150;8.428;2023-12-22T05:03:28;11.70;;;3.40;;
4434;SDS011;46552;52.150;8.428;2023-12-22T05:05:56;10.80;;;2.87;;
4434;SDS011;46552;52.150;8.428;2023-12-22T05:08:23;8.00;;;2.10;;
4434;SDS011;46552;52.150;8.428;2023-12-22T05:10:50;7.60;;;2.00;;
4434;SDS011;46552;52.150;8.428;2023-12-22T05:13:19;15.63;;;3.03;;
4434;SDS011;46552;52.150;8.428;2023-12-22T05:15:47;7.53;;;2.60;;
4434;SDS011;46552;52.150;8.428;2023-12-22T05:18:14;11.77;;;2.63;;
4434;SDS011;46552;52.150;8.428;2023-12-22T05:20:41;7.70;;;2.03;;
4434;SDS011;46552;52.150;8.428;2023-12-22T05:23:09;7.20;;;1.83;;
4434;SDS011;46552;52.150;8.428;2023-12-22T05:25:36;7.40;;;2.60;;
4434;SDS011;46552;52.150;8.428;2023-12-22T05:28:03;17.50;;;2.60;;
4434;SDS011;46552;52.150;8.428;2023-12-22T05:30:33;10.90;;;1.90;;
4434;SDS011;46552;52.150;8.428;2023-12-22T05:33:00;12.93;;;2.63;;
4434;SDS011;46552;52.150;8.428;2023-12-22T05:35:28;12.77;;;3.87;;
4434;SDS011;46552;52.150;8.428;2023-12-22T05:37:58;9.23;;;2.60;;
4434;SDS011;46552;52.150;8.428;2023-12-22T05:40:25;12.73;;;3.03;;
4434;SDS011;46552;52.150;8.428;2023-12-22T05:42:52;14.67;;;2.93;;
4434;SDS011;46552;52.150;8.428;2023-12-22T05:45:19;13.40;;;2.60;;
4434;SDS011;46552;52.150;8.428;2023-12-22T05:47:47;9.13;;;2.40;;
4434;SDS011;46552;52.150;8.428;2023-12-22T05:50:15;15.70;;;3.07;;
4434;SDS011;46552;52.150;8.428;2023-12-22T05:52:42;13.80;;;3.10;;
4434;SDS011;46552;52.150;8.428;2023-12-22T05:55:10;25.80;;;3.60;;
4434;SDS011;46552;52.150;8.428;2023-12-22T05:57:37;15.93;;;3.30;;
4434;SDS011;46552;52.150;8.428;2023-12-22T06:00:05;18.00;;;2.40;;
4434;SDS011;46552;52.150;8.428;2023-12-22T06:02:35;12.50;;;2.27;;
4434;SDS011;46552;52.150;8.428;2023-12-22T06:05:04;14.47;;;2.83;;
4434;SDS011;46552;52.150;8.428;2023-12-22T06:07:31;20.00;;;4.00;;
4434;SDS011;46552;52.150;8.428;2023-12-22T06:09:58;11.33;;;2.50;;
4434;SDS011;46552;52.150;8.428;2023-12-22T06:12:26;14.80;;;3.47;;
4434;SDS011;46552;52.150;8.428;2023-12-22T06:14:54;12.60;;;2.60;;
4434;SDS011;46552;52.150;8.428;2023-12-22T06:17:21;22.20;;;3.50;;
4434;SDS011;46552;52.150;8.428;2023-12-22T06:19:48;18.63;;;2.93;;
4434;SDS011;46552;52.150;8.428;2023-12-22T06:22:18;18.77;;;4.10;;
4434;SDS011;46552;52.150;8.428;2023-12-22T06:24:45;21.60;;;4.47;;
4434;SDS011;46552;52.150;8.428;2023-12-22T06:27:12;22.50;;;4.57;;
4434;SDS011;46552;52.150;8.428;2023-12-22T06:29:39;22.00;;;4.70;;
4434;SDS011;46552;52.150;8.428;2023-12-22T06:32:08;14.20;;;3.77;;
4434;SDS011;46552;52.150;8.428;2023-12-22T06:34:35;23.33;;;5.07;;
4434;SDS011;46552;52.150;8.428;2023-12-22T06:37:02;26.57;;;3.80;;
4434;SDS011;46552;52.150;8.428;2023-12-22T06:39:32;22.33;;;4.03;;
4434;SDS011;46552;52.150;8.428;2023-12-22T06:42:00;26.47;;;5.30;;
4434;SDS011;46552;52.150;8.428;2023-12-22T06:44:27;13.77;;;3.90;;
4434;SDS011;46552;52.150;8.428;2023-12-22T06:46:56;14.60;;;3.43;;
4434;SDS011;46552;52.150;8.428;2023-12-22T06:49:23;30.67;;;4.90;;
4434;SDS011;46552;52.150;8.428;2023-12-22T06:51:50;25.00;;;4.70;;
4434;SDS011;46552;52.150;8.428;2023-12-22T06:54:18;23.77;;;4.70;;
4434;SDS011;46552;52.150;8.428;2023-12-22T06:56:47;23.03;;;4.47;;
4434;SDS011;46552;52.150;8.428;2023-12-22T06:59:14;21.90;;;3.43;;
4434;SDS011;46552;52.150;8.428;2023-12-22T07:01:41;26.87;;;4.97;;
4434;SDS011;46552;52.150;8.428;2023-12-22T07:04:08;27.00;;;5.40;;
4434;SDS011;46552;52.150;8.428;2023-12-22T07:06:35;16.70;;;4.33;;
4434;SDS011;46552;52.150;8.428;2023-12-22T07:11:58;30.73;;;4.80;;
4434;SDS011;46552;52.150;8.428;2023-12-22T07:14:26;15.47;;;4.30;;
4434;SDS011;46552;52.150;8.428;2023-12-22T07:16:55;14.93;;;3.50;;
4434;SDS011;46552;52.150;8.428;2023-12-22T07:19:23;22.67;;;6.03;;
4434;SDS011;46552;52.150;8.428;2023-12-22T07:21:50;25.60;;;3.60;;
4434;SDS011;46552;52.150;8.428;2023-12-22T07:24:17;26.63;;;3.80;;
4434;SDS011;46552;52.150;8.428;2023-12-22T07:26:45;21.33;;;5.43;;
4434;SDS011;46552;52.150;8.428;2023-12-22T07:29:14;34.63;;;4.50;;
4434;SDS011;46552;52.150;8.428;2023-12-22T07:31:41;21.03;;;4.40;;
4434;SDS011;46552;52.150;8.428;2023-12-22T07:34:08;38.03;;;4.50;;
4434;SDS011;46552;52.150;8.428;2023-12-22T07:36:36;19.37;;;4.77;;
4434;SDS011;46552;52.150;8.428;2023-12-22T07:39:03;24.83;;;4.73;;
4434;SDS011;46552;52.150;8.428;2023-12-22T07:41:31;34.20;;;4.60;;
4434;SDS011;46552;52.150;8.428;2023-12-22T07:43:58;21.30;;;4.17;;
4434;SDS011;46552;52.150;8.428;2023-12-22T07:46:27;17.97;;;4.00;;
4434;SDS011;46552;52.150;8.428;2023-12-22T07:48:55;23.30;;;4.03;;
4434;SDS011;46552;52.150;8.428;2023-12-22T07:51:23;30.67;;;4.70;;
4434;SDS011;46552;52.150;8.428;2023-12-22T07:53:50;20.00;;;3.50;;
4434;SDS011;46552;52.150;8.428;2023-12-22T07:56:17;26.80;;;4.23;;
4434;SDS011;46552;52.150;8.428;2023-12-22T07:58:48;26.30;;;4.37;;
4434;SDS011;46552;52.150;8.428;2023-12-22T08:01:15;27.37;;;4.63;;
4434;SDS011;46552;52.150;8.428;2023-12-22T08:03:44;21.83;;;4.90;;
4434;SDS011;46552;52.150;8.428;2023-12-22T08:06:11;19.87;;;4.47;;
4434;SDS011;46552;52.150;8.428;2023-12-22T08:08:39;17.47;;;4.60;;
4434;SDS011;46552;52.150;8.428;2023-12-22T08:11:06;18.90;;;5.40;;
4434;SDS011;46552;52.150;8.428;2023-12-22T08:13:34;28.70;;;4.60;;
4434;SDS011;46552;52.150;8.428;2023-12-22T08:16:02;21.83;;;4.47;;
4434;SDS011;46552;52.150;8.428;2023-12-22T08:18:30;17.13;;;3.70;;
4434;SDS011;46552;52.150;8.428;2023-12-22T08:20:59;16.10;;;3.90;;
4434;SDS011;46552;52.150;8.428;2023-12-22T08:23:26;27.77;;;4.90;;
4434;SDS011;46552;52.150;8.428;2023-12-22T08:25:54;27.07;;;5.10;;
4434;SDS011;46552;52.150;8.428;2023-12-22T08:28:22;18.70;;;4.40;;
4434;SDS011;46552;52.150;8.428;2023-12-22T08:30:51;23.67;;;4.57;;
4434;SDS011;46552;52.150;8.428;2023-12-22T08:33:18;26.70;;;4.67;;
4434;SDS011;46552;52.150;8.428;2023-12-22T08:35:45;24.97;;;4.77;;
4434;SDS011;46552;52.150;8.428;2023-12-22T08:38:14;34.53;;;5.80;;
4434;SDS011;46552;52.150;8.428;2023-12-22T08:40:42;26.93;;;5.27;;
4434;SDS011;46552;52.150;8.428;2023-12-22T08:43:10;28.13;;;4.47;;
4434;SDS011;46552;52.150;8.428;2023-12-22T08:45:37;17.37;;;3.90;;
4434;SDS011;46552;52.150;8.428;2023-12-22T08:48:04;22.43;;;4.60;;
4434;SDS011;46552;52.150;8.428;2023-12-22T08:50:33;23.23;;;5.77;;
4434;SDS011;46552;52.150;8.428;2023-12-22T08:53:01;24.70;;;5.57;;
4434;SDS011;46552;52.150;8.428;2023-12-22T08:55:29;18.67;;;4.17;;
4434;SDS011;46552;52.150;8.428;2023-12-22T08:57:56;27.67;;;5.33;;
4434;SDS011;46552;52.150;8.428;2023-12-22T09:00:23;25.17;;;5.20;;
4434;SDS011;46552;52.150;8.428;2023-12-22T09:02:50;15.50;;;4.20;;
4434;SDS011;46552;52.150;8.428;2023-12-22T09:05:18;39.43;;;7.70;;
4434;SDS011;46552;52.150;8.428;2023-12-22T09:07:46;34.73;;;5.83;;
4434;SDS011;46552;52.150;8.428;2023-12-22T09:10:13;25.43;;;5.23;;
4434;SDS011;46552;52.150;8.428;2023-12-22T09:12:42;26.63;;;5.03;;
4434;SDS011;46552;52.150;8.428;2023-12-22T09:15:10;22.07;;;4.50;;
4434;SDS011;46552;52.150;8.428;2023-12-22T09:17:38;15.63;;;4.50;;
4434;SDS011;46552;52.150;8.428;2023-12-22T09:20:07;27.67;;;5.03;;
4434;SDS011;46552;52.150;8.428;2023-12-22T09:22:34;12.33;;;4.20;;
4434;SDS011;46552;52.150;8.428;2023-12-22T09:25:02;21.40;;;4.20;;
4434;SDS011;46552;52.150;8.428;2023-12-22T09:27:29;26.93;;;4.33;;
4434;SDS011;46552;52.150;8.428;2023-12-22T09:29:58;15.90;;;3.20;;
4434;SDS011;46552;52.150;8.428;2023-12-22T09:32:25;26.47;;;4.40;;
4434;SDS011;46552;52.150;8.428;2023-12-22T09:34:53;18.83;;;4.40;;
4434;SDS011;46552;52.150;8.428;2023-12-22T09:37:24;17.83;;;4.00;;
4434;SDS011;46552;52.150;8.428;2023-12-22T09:39:51;27.23;;;4.50;;
4434;SDS011;46552;52.150;8.428;2023-12-22T09:42:19;15.33;;;3.70;;
4434;SDS011;46552;52.150;8.428;2023-12-22T09:44:48;25.60;;;4.47;;
4434;SDS011;46552;52.150;8.428;2023-12-22T09:47:20;24.13;;;3.70;;
4434;SDS011;46552;52.150;8.428;2023-12-22T09:49:49;19.33;;;4.47;;
4434;SDS011;46552;52.150;8.428;2023-12-22T09:52:18;13.37;;;4.83;;
4434;SDS011;46552;52.150;8.428;2023-12-22T09:54:46;15.07;;;3.50;;
4434;SDS011;46552;52.150;8.428;2023-12-22T09:57:15;20.00;;;3.97;;
4434;SDS011;46552;52.150;8.428;2023-12-22T09:59:42;18.93;;;3.30;;
4434;SDS011;46552;52.150;8.428;2023-12-22T10:02:10;14.03;;;2.60;;
4434;SDS011;46552;52.150;8.428;2023-12-22T10:04:38;30.37;;;3.50;;
4434;SDS011;46552;52.150;8.428;2023-12-22T10:07:06;17.47;;;2.97;;
4434;SDS011;46552;52.150;8.428;2023-12-22T10:09:34;12.97;;;3.17;;
4434;SDS011;46552;52.150;8.428;2023-12-22T10:12:03;13.60;;;2.60;;
4434;SDS011;46552;52.150;8.428;2023-12-22T10:14:32;15.47;;;2.93;;
4434;SDS011;46552;52.150;8.428;2023-12-22T10:17:01;15.83;;;2.73;;
4434;SDS011;46552;52.150;8.428;2023-12-22T10:19:28;13.40;;;3.10;;
4434;SDS011;46552;52.150;8.428;2023-12-22T10:21:57;9.97;;;2.50;;
4434;SDS011;46552;52.150;8.428;2023-12-22T10:24:37;11.07;;;2.47;;
4434;SDS011;46552;52.150;8.428;2023-12-22T10:27:07;14.10;;;2.23;;
4434;SDS011;46552;52.150;8.428;2023-12-22T10:29:34;12.43;;;2.97;;
4434;SDS011;46552;52.150;8.428;2023-12-22T10:32:02;20.93;;;3.17;;
4434;SDS011;46552;52.150;8.428;2023-12-22T10:34:30;15.27;;;2.87;;
4434;SDS011;46552;52.150;8.428;2023-12-22T10:36:59;15.63;;;4.27;;
4434;SDS011;46552;52.150;8.428;2023-12-22T10:39:27;14.87;;;2.37;;
4434;SDS011;46552;52.150;8.428;2023-12-22T10:41:55;10.30;;;2.90;;
4434;SDS011;46552;52.150;8.428;2023-12-22T10:44:23;8.80;;;2.20;;
4434;SDS011;46552;52.150;8.428;2023-12-22T10:46:51;8.70;;;2.50;;
4434;SDS011;46552;52.150;8.428;2023-12-22T10:49:19;7.33;;;2.00;;
4434;SDS011;46552;52.150;8.428;2023-12-22T10:51:49;8.13;;;2.30;;
4434;SDS011;46552;52.150;8.428;2023-12-22T10:54:18;9.90;;;1.97;;
4434;SDS011;46552;52.150;8.428;2023-12-22T10:56:46;12.73;;;2.67;;
4434;SDS011;46552;52.150;8.428;2023-12-22T10:59:16;8.87;;;2.30;;
4434;SDS011;46552;52.150;8.428;2023-12-22T11:01:44;6.93;;;2.17;;
4434;SDS011;46552;52.150;8.428;2023-12-22T11:04:17;10.53;;;2.20;;
4434;SDS011;46552;52.150;8.428;2023-12-22T11:06:46;13.90;;;1.80;;
4434;SDS011;46552;52.150;8.428;2023-12-22T11:09:16;10.77;;;2.47;;
4434;SDS011;46552;52.150;8.428;2023-12-22T11:11:48;16.03;;;2.60;;
4434;SDS011;46552;52.150;8.428;2023-12-22T11:14:17;8.67;;;2.63;;
4434;SDS011;46552;52.150;8.428;2023-12-22T11:16:45;5.37;;;1.77;;
4434;SDS011;46552;52.150;8.428;2023-12-22T11:19:15;8.80;;;2.00;;
4434;SDS011;46552;52.150;8.428;2023-12-22T11:21:44;12.30;;;2.47;;
4434;SDS011;46552;52.150;8.428;2023-12-22T11:24:13;6.37;;;1.50;;
4434;SDS011;46552;52.150;8.428;2023-12-22T11:26:43;8.40;;;1.97;;
4434;SDS011;46552;52.150;8.428;2023-12-22T11:29:12;5.13;;;2.43;;
4434;SDS011;46552;52.150;8.428;2023-12-22T11:31:43;10.67;;;2.93;;
4434;SDS011;46552;52.150;8.428;2023-12-22T11:34:13;10.50;;;2.20;;
4434;SDS011;46552;52.150;8.428;2023-12-22T11:36:43;7.77;;;2.27;;
4434;SDS011;46552;52.150;8.428;2023-12-22T11:39:13;7.63;;;2.00;;
4434;SDS011;46552;52.150;8.428;2023-12-22T11:41:42;11.13;;;2.67;;
4434;SDS011;46552;52.150;8.428;2023-12-22T11:44:11;8.43;;;2.97;;
4434;SDS011;46552;52.150;8.428;2023-12-22T11:46:38;9.23;;;2.27;;
4434;SDS011;46552;52.150;8.428;2023-12-22T11:49:05;7.37;;;2.07;;
4434;SDS011;46552;52.150;8.428;2023-12-22T11:51:33;12.13;;;2.30;;
4434;SDS011;46552;52.150;8.428;2023-12-22T11:54:00;10.10;;;2.50;;
4434;SDS011;46552;52.150;8.428;2023-12-22T11:56:28;6.57;;;1.77;;
4434;SDS011;46552;52.150;8.428;2023-12-22T11:58:58;15.53;;;3.10;;
4434;SDS011;46552;52.150;8.428;2023-12-22T12:01:26;5.43;;;2.90;;
4434;SDS011;46552;52.150;8.428;2023-12-22T12:03:56;11.17;;;1.77;;
4434;SDS011;46552;52.150;8.428;2023-12-22T12:06:32;8.80;;;2.23;;
4434;SDS011;46552;52.150;8.428;2023-12-22T12:09:04;6.73;;;1.50;;
4434;SDS011;46552;52.150;8.428;2023-12-22T12:14:42;5.27;;;1.53;;
4434;SDS011;46552;52.150;8.428;2023-12-22T12:17:11;7.83;;;1.63;;
4434;SDS011;46552;52.150;8.428;2023-12-22T12:19:44;4.70;;;1.90;;
4434;SDS011;46552;52.150;8.428;2023-12-22T12:22:11;7.93;;;2.17;;
4434;SDS011;46552;52.150;8.428;2023-12-22T12:24:38;10.07;;;2.00;;
4434;SDS011;46552;52.150;8.428;2023-12-22T12:27:07;31.00;;;13.80;;
4434;SDS011;46552;52.150;8.428;2023-12-22T12:29:34;15.50;;;5.30;;
4434;SDS011;46552;52.150;8.428;2023-12-22T12:32:04;8.43;;;3.07;;
4434;SDS011;46552;52.150;8.428;2023-12-22T12:34:32;5.63;;;2.83;;
4434;SDS011;46552;52.150;8.428;2023-12-22T12:36:59;7.53;;;1.97;;
4434;SDS011;46552;52.150;8.428;2023-12-22T12:39:29;6.30;;;2.00;;
4434;SDS011;46552;52.150;8.428;2023-12-22T12:41:58;6.13;;;2.30;;
4434;SDS011;46552;52.150;8.428;2023-12-22T12:44:27;7.70;;;2.07;;
4434;SDS011;46552;52.150;8.428;2023-12-22T12:46:57;11.20;;;2.20;;
4434;SDS011;46552;52.150;8.428;2023-12-22T12:49:26;8.30;;;2.30;;
4434;SDS011;46552;52.150;8.428;2023-12-22T12:51:56;7.10;;;2.47;;
4434;SDS011;46552;52.150;8.428;2023-12-22T12:54:24;9.80;;;2.03;;
4434;SDS011;46552;52.150;8.428;2023-12-22T12:56:53;4.53;;;1.33;;
4434;SDS011;46552;52.150;8.428;2023-12-22T12:59:20;6.40;;;1.77;;
4434;SDS011;46552;52.150;8.428;2023-12-22T13:01:48;8.77;;;3.20;;
4434;SDS011;46552;52.150;8.428;2023-12-22T13:04:15;5.33;;;2.30;;
4434;SDS011;46552;52.150;8.428;2023-12-22T13:06:44;7.30;;;3.00;;
4434;SDS011;46552;52.150;8.428;2023-12-22T13:09:11;7.83;;;3.43;;
4434;SDS011;46552;52.150;8.428;2023-12-22T13:11:40;7.13;;;1.70;;
4434;SDS011;46552;52.150;8.428;2023-12-22T13:14:08;5.27;;;1.97;;
4434;SDS011;46552;52.150;8.428;2023-12-22T13:16:35;4.33;;;2.57;;
4434;SDS011;46552;52.150;8.428;2023-12-22T13:19:04;9.03;;;3.43;;
4434;SDS011;46552;52.150;8.428;2023-12-22T13:21:32;9.33;;;2.50;;
4434;SDS011;46552;52.150;8.428;2023-12-22T13:24:10;5.70;;;2.43;;
4434;SDS011;46552;52.150;8.428;2023-12-22T13:26:38;6.67;;;1.77;;
4434;SDS011;46552;52.150;8.428;2023-12-22T13:29:06;6.40;;;1.50;;
4434;SDS011;46552;52.150;8.428;2023-12-22T13:31:35;11.10;;;2.43;;
4434;SDS011;46552;52.150;8.428;2023-12-22T13:34:03;4.20;;;1.77;;
4434;SDS011;46552;52.150;8.428;2023-12-22T13:36:35;3.03;;;1.37;;
4434;SDS011;46552;52.150;8.428;2023-12-22T13:39:04;4.63;;;1.53;;
4434;SDS011;46552;52.150;8.428;2023-12-22T13:41:34;3.43;;;1.40;;
4434;SDS011;46552;52.150;8.428;2023-12-22T13:44:04;5.97;;;1.67;;
4434;SDS011;46552;52.150;8.428;2023-12-22T13:46:32;3.50;;;1.17;;
4434;SDS011;46552;52.150;8.428;2023-12-22T13:49:00;5.63;;;2.30;;
4434;SDS011;46552;52.150;8.428;2023-12-22T13:51:38;3.70;;;1.03;;
4434;SDS011;46552;52.150;8.428;2023-12-22T13:54:05;3.87;;;2.13;;
4434;SDS011;46552;52.150;8.428;2023-12-22T13:56:36;2.93;;;1.20;;
4434;SDS011;46552;52.150;8.428;2023-12-22T13:59:05;4.00;;;1.40;;
4434;SDS011;46552;52.150;8.428;2023-12-22T14:01:33;3.40;;;1.40;;
4434;SDS011;46552;52.150;8.428;2023-12-22T14:04:01;3.67;;;1.07;;
4434;SDS011;46552;52.150;8.428;2023-12-22T14:06:29;3.47;;;1.60;;
4434;SDS011;46552;52.150;8.428;2023-12-22T14:08:56;2.27;;;0.93;;
4434;SDS011;46552;52.150;8.428;2023-12-22T14:11:24;4.57;;;1.13;;
4434;SDS011;46552;52.150;8.428;2023-12-22T14:13:53;3.60;;;0.90;;
4434;SDS011;46552;52.150;8.428;2023-12-22T14:16:20;2.93;;;0.80;;
4434;SDS011;46552;52.150;8.428;2023-12-22T14:18:47;3.20;;;1.27;;
4434;SDS011;46552;52.150;8.428;2023-12-22T14:21:14;5.37;;;1.20;;
4434;SDS011;46552;52.150;8.428;2023-12-22T14:23:41;3.63;;;1.67;;
4434;SDS011;46552;52.150;8.428;2023-12-22T14:26:08;3.03;;;1.10;;
4434;SDS011;46552;52.150;8.428;2023-12-22T14:28:35;3.33;;;1.70;;
4434;SDS011;46552;52.150;8.428;2023-12-22T14:31:04;3.40;;;1.20;;
4434;SDS011;46552;52.150;8.428;2023-12-22T14:33:31;5.80;;;1.53;;
4434;SDS011;46552;52.150;8.428;2023-12-22T14:35:58;3.30;;;1.07;;
4434;SDS011;46552;52.150;8.428;2023-12-22T14:38:28;4.10;;;1.43;;
4434;SDS011;46552;52.150;8.428;2023-12-22T14:40:55;3.00;;;1.00;;
4434;SDS011;46552;52.150;8.428;2023-12-22T14:43:22;2.10;;;1.00;;
4434;SDS011;46552;52.150;8.428;2023-12-22T14:45:49;5.30;;;1.20;;
4434;SDS011;46552;52.150;8.428;2023-12-22T14:48:18;3.60;;;1.00;;
4434;SDS011;46552;52.150;8.428;2023-12-22T14:50:45;3.13;;;0.90;;
4434;SDS011;46552;52.150;8.428;2023-12-22T14:53:12;3.50;;;1.83;;
4434;SDS011;46552;52.150;8.428;2023-12-22T14:55:40;4.40;;;2.40;;
4434;SDS011;46552;52.150;8.428;2023-12-22T14:58:08;3.70;;;1.30;;
4434;SDS011;46552;52.150;8.428;2023-12-22T15:00:35;5.63;;;1.40;;